sensor_id;sensor_type;location;lat;lon;timestamp;pressure;altitude;pressure_sealevel;temperature;humidity
7930;BME280;4010;42.698;23.124;2022-10-22T00:02:10;46913.88;;;-140.64;100.00
7930;BME280;4010;42.698;23.124;2022-10-22T00:04:40;46139.91;;;-140.64;100.00
7930;BME280;4010;42.698;23.124;2022-10-22T00:07:07;43045.84;;;-140.64;100.00
7930;BME280;4010;42.698;23.124;2022-10-22T00:09:35;42788.13;;;-140.64;100.00
7930;BME280;4010;42.698;23.124;2022-10-22T00:12:02;43561.34;;;-140.64;100.00
7930;BME280;4010;42.698;23.124;2022-10-22T00:14:28;44592.53;;;-140.64;100.00
7930;BME280;4010;42.698;23.124;2022-10-22T00:16:55;44076.88;;;-140.64;100.00
7930;BME280;4010;42.698;23.124;2022-10-22T00:19:25;44334.69;;;-140.64;100.00
7930;BME280;4010;42.698;23.124;2022-10-22T00:21:52;47171.91;;;-140.64;100.00
7930;BME280;4010;42.698;23.124;2022-10-22T00:24:19;46913.88;;;-140.64;100.00
7930;BME280;4010;42.698;23.124;2022-10-22T00:26:47;46913.88;;;-140.64;100.00
7930;BME280;4010;42.698;23.124;2022-10-22T00:29:13;47688.00;;;-140.64;100.00
7930;BME280;4010;42.698;23.124;2022-10-22T00:31:42;47946.09;;;-140.64;100.00
7930;BME280;4010;42.698;23.124;2022-10-22T00:34:14;46913.88;;;-140.64;100.00
7930;BME280;4010;42.698;23.124;2022-10-22T00:36:40;47171.91;;;-140.64;100.00
7930;BME280;4010;42.698;23.124;2022-10-22T00:39:07;46655.88;;;-140.64;100.00
7930;BME280;4010;42.698;23.124;2022-10-22T00:41:34;46913.88;;;-140.64;100.00
7930;BME280;4010;42.698;23.124;2022-10-22T00:44:04;46397.88;;;-140.64;100.00
7930;BME280;4010;42.698;23.124;2022-10-22T00:46:31;46655.88;;;-140.64;100.00
7930;BME280;4010;42.698;23.124;2022-10-22T00:49:00;47171.91;;;-140.64;100.00
7930;BME280;4010;42.698;23.124;2022-10-22T00:51:30;46913.88;;;-140.64;100.00
7930;BME280;4010;42.698;23.124;2022-10-22T00:54:01;46139.91;;;-140.64;100.00
7930;BME280;4010;42.698;23.124;2022-10-22T00:56:29;46397.88;;;-140.64;100.00
7930;BME280;4010;42.698;23.124;2022-10-22T00:58:58;46913.88;;;-140.64;100.00
7930;BME280;4010;42.698;23.124;2022-10-22T01:01:29;47171.91;;;-140.64;100.00
7930;BME280;4010;42.698;23.124;2022-10-22T01:03:57;47171.91;;;-140.64;100.00
7930;BME280;4010;42.698;23.124;2022-10-22T01:06:25;46139.91;;;-140.64;100.00
7930;BME280;4010;42.698;23.124;2022-10-22T01:09:01;46655.88;;;-140.64;100.00
7930;BME280;4010;42.698;23.124;2022-10-22T01:11:35;46913.88;;;-140.64;100.00
7930;BME280;4010;42.698;23.124;2022-10-22T01:14:11;47429.94;;;-140.64;100.00
7930;BME280;4010;42.698;23.124;2022-10-22T01:16:46;47429.94;;;-140.64;100.00
7930;BME280;4010;42.698;23.124;2022-10-22T01:19:48;48462.31;;;-140.64;100.00
7930;BME280;4010;42.698;23.124;2022-10-22T01:22:24;49236.81;;;-140.64;100.00
7930;BME280;4010;42.698;23.124;2022-10-22T01:24:59;49495.03;;;-140.64;100.00
7930;BME280;4010;42.698;23.124;2022-10-22T01:27:38;49495.03;;;-140.64;100.00
7930;BME280;4010;42.698;23.124;2022-10-22T01:30:11;49236.81;;;-140.64;100.00
7930;BME280;4010;42.698;23.124;2022-10-22T01:32:42;49236.81;;;-140.64;100.00
7930;BME280;4010;42.698;23.124;2022-10-22T01:35:13;49753.25;;;-140.64;100.00
7930;BME280;4010;42.698;23.124;2022-10-22T01:37:45;48978.63;;;-140.64;100.00
7930;BME280;4010;42.698;23.124;2022-10-22T01:40:13;50011.50;;;-140.64;100.00
7930;BME280;4010;42.698;23.124;2022-10-22T01:42:40;49236.81;;;-140.64;100.00
7930;BME280;4010;42.698;23.124;2022-10-22T01:45:12;48204.19;;;-140.64;100.00
7930;BME280;4010;42.698;23.124;2022-10-22T01:47:48;48720.47;;;-140.64;100.00
7930;BME280;4010;42.698;23.124;2022-10-22T01:50:58;48462.31;;;-140.64;100.00
7930;BME280;4010;42.698;23.124;2022-10-22T01:53:32;49495.03;;;-140.64;100.00
7930;BME280;4010;42.698;23.124;2022-10-22T01:56:08;48462.31;;;-140.64;100.00
7930;BME280;4010;42.698;23.124;2022-10-22T01:58:45;48720.47;;;-140.64;100.00
7930;BME280;4010;42.698;23.124;2022-10-22T02:01:20;49236.81;;;-140.64;100.00
7930;BME280;4010;42.698;23.124;2022-10-22T02:03:55;49236.81;;;-140.64;100.00
7930;BME280;4010;42.698;23.124;2022-10-22T02:06:26;48204.19;;;-140.64;100.00
7930;BME280;4010;42.698;23.124;2022-10-22T02:08:55;47429.94;;;-140.64;100.00
7930;BME280;4010;42.698;23.124;2022-10-22T02:11:23;47688.00;;;-140.64;100.00
7930;BME280;4010;42.698;23.124;2022-10-22T02:13:53;47429.94;;;-140.64;100.00
7930;BME280;4010;42.698;23.124;2022-10-22T02:16:26;46397.88;;;-140.64;100.00
7930;BME280;4010;42.698;23.124;2022-10-22T02:18:55;46655.88;;;-140.64;100.00
7930;BME280;4010;42.698;23.124;2022-10-22T02:21:24;46397.88;;;-140.64;100.00
7930;BME280;4010;42.698;23.124;2022-10-22T02:23:51;46397.88;;;-140.64;100.00
7930;BME280;4010;42.698;23.124;2022-10-22T02:26:21;45881.97;;;-140.64;100.00
7930;BME280;4010;42.698;23.124;2022-10-22T02:28:55;46655.88;;;-140.64;100.00
7930;BME280;4010;42.698;23.124;2022-10-22T02:31:27;46655.88;;;-140.64;100.00
7930;BME280;4010;42.698;23.124;2022-10-22T02:33:57;46139.91;;;-140.64;100.00
7930;BME280;4010;42.698;23.124;2022-10-22T02:36:27;46397.88;;;-140.64;100.00
7930;BME280;4010;42.698;23.124;2022-10-22T02:38:54;46913.88;;;-140.64;100.00
7930;BME280;4010;42.698;23.124;2022-10-22T02:41:22;45881.97;;;-140.64;100.00
7930;BME280;4010;42.698;23.124;2022-10-22T02:43:53;44076.88;;;-140.64;100.00
7930;BME280;4010;42.698;23.124;2022-10-22T02:46:20;44076.88;;;-140.64;100.00
7930;BME280;4010;42.698;23.124;2022-10-22T02:48:49;44334.69;;;-140.64;100.00
7930;BME280;4010;42.698;23.124;2022-10-22T02:51:15;43561.34;;;-140.64;100.00
7930;BME280;4010;42.698;23.124;2022-10-22T02:53:42;43303.59;;;-140.64;100.00
7930;BME280;4010;42.698;23.124;2022-10-22T02:56:10;42530.44;;;-140.64;100.00
7930;BME280;4010;42.698;23.124;2022-10-22T02:58:36;42788.13;;;-140.64;100.00
7930;BME280;4010;42.698;23.124;2022-10-22T03:01:03;42272.78;;;-140.64;100.00
7930;BME280;4010;42.698;23.124;2022-10-22T03:03:30;43561.34;;;-140.64;100.00
7930;BME280;4010;42.698;23.124;2022-10-22T03:05:58;44076.88;;;-140.64;100.00
7930;BME280;4010;42.698;23.124;2022-10-22T03:08:25;44076.88;;;-140.64;100.00
7930;BME280;4010;42.698;23.124;2022-10-22T03:10:52;44334.69;;;-140.64;100.00
7930;BME280;4010;42.698;23.124;2022-10-22T03:13:19;44076.88;;;-140.64;100.00
7930;BME280;4010;42.698;23.124;2022-10-22T03:15:47;43303.59;;;-140.64;100.00
7930;BME280;4010;42.698;23.124;2022-10-22T03:18:14;43303.59;;;-140.64;100.00
7930;BME280;4010;42.698;23.124;2022-10-22T03:20:41;43561.34;;;-140.64;100.00
7930;BME280;4010;42.698;23.124;2022-10-22T03:23:09;43561.34;;;-140.64;100.00
7930;BME280;4010;42.698;23.124;2022-10-22T03:25:38;43561.34;;;-140.64;100.00
7930;BME280;4010;42.698;23.124;2022-10-22T03:28:08;43303.59;;;-140.64;100.00
7930;BME280;4010;42.698;23.124;2022-10-22T03:30:36;43561.34;;;-140.64;100.00
7930;BME280;4010;42.698;23.124;2022-10-22T03:33:03;42788.13;;;-140.64;100.00
7930;BME280;4010;42.698;23.124;2022-10-22T03:35:30;43819.09;;;-140.64;100.00
7930;BME280;4010;42.698;23.124;2022-10-22T03:37:58;44850.38;;;-140.64;100.00
7930;BME280;4010;42.698;23.124;2022-10-22T03:40:27;43561.34;;;-140.64;100.00
7930;BME280;4010;42.698;23.124;2022-10-22T03:42:54;43045.84;;;-140.64;100.00
7930;BME280;4010;42.698;23.124;2022-10-22T03:45:21;42530.44;;;-140.64;100.00
7930;BME280;4010;42.698;23.124;2022-10-22T03:47:48;41757.50;;;-140.64;100.00
7930;BME280;4010;42.698;23.124;2022-10-22T03:50:14;41757.50;;;-140.64;100.00
7930;BME280;4010;42.698;23.124;2022-10-22T03:52:41;39697.16;;;-140.64;100.00
7930;BME280;4010;42.698;23.124;2022-10-22T03:55:08;39182.28;;;-140.64;100.00
7930;BME280;4010;42.698;23.124;2022-10-22T03:57:36;38924.84;;;-140.64;100.00
7930;BME280;4010;42.698;23.124;2022-10-22T04:00:05;37895.41;;;-140.64;100.00
7930;BME280;4010;42.698;23.124;2022-10-22T04:02:31;36351.81;;;-140.64;100.00
7930;BME280;4010;42.698;23.124;2022-10-22T04:04:58;36609.03;;;-140.64;100.00
7930;BME280;4010;42.698;23.124;2022-10-22T04:07:25;36866.25;;;-140.64;100.00
7930;BME280;4010;42.698;23.124;2022-10-22T04:09:51;35837.44;;;-140.64;100.00
7930;BME280;4010;42.698;23.124;2022-10-22T04:12:18;35066.00;;;-140.64;100.00
7930;BME280;4010;42.698;23.124;2022-10-22T04:14:46;34551.84;;;-140.64;100.00
7930;BME280;4010;42.698;23.124;2022-10-22T04:17:13;34808.91;;;-140.64;100.00
7930;BME280;4010;42.698;23.124;2022-10-22T04:19:40;34294.78;;;-140.64;100.00
7930;BME280;4010;42.698;23.124;2022-10-22T04:22:07;34808.91;;;-140.64;100.00
7930;BME280;4010;42.698;23.124;2022-10-22T04:24:34;34551.84;;;-140.64;100.00
7930;BME280;4010;42.698;23.124;2022-10-22T04:27:00;35066.00;;;-140.64;100.00
7930;BME280;4010;42.698;23.124;2022-10-22T04:29:27;35066.00;;;-140.64;100.00
7930;BME280;4010;42.698;23.124;2022-10-22T04:31:55;35580.28;;;-140.64;100.00
7930;BME280;4010;42.698;23.124;2022-10-22T04:34:22;34808.91;;;-140.64;100.00
7930;BME280;4010;42.698;23.124;2022-10-22T04:36:48;34808.91;;;-140.64;100.00
7930;BME280;4010;42.698;23.124;2022-10-22T04:39:15;34294.78;;;-140.64;100.00
7930;BME280;4010;42.698;23.124;2022-10-22T04:41:42;34551.84;;;-140.64;100.00
7930;BME280;4010;42.698;23.124;2022-10-22T04:44:08;34808.91;;;-140.64;100.00
7930;BME280;4010;42.698;23.124;2022-10-22T04:46:35;34294.78;;;-140.64;100.00
7930;BME280;4010;42.698;23.124;2022-10-22T04:49:03;34551.84;;;-140.64;100.00
7930;BME280;4010;42.698;23.124;2022-10-22T04:51:30;35066.00;;;-140.64;100.00
7930;BME280;4010;42.698;23.124;2022-10-22T04:53:57;34808.91;;;-140.64;100.00
7930;BME280;4010;42.698;23.124;2022-10-22T04:56:26;34808.91;;;-140.64;100.00
7930;BME280;4010;42.698;23.124;2022-10-22T04:58:55;36094.59;;;-140.64;100.00
7930;BME280;4010;42.698;23.124;2022-10-22T05:01:24;36866.25;;;-140.64;100.00
7930;BME280;4010;42.698;23.124;2022-10-22T05:03:52;36609.03;;;-140.64;100.00
7930;BME280;4010;42.698;23.124;2022-10-22T05:06:21;37123.50;;;-140.64;100.00
7930;BME280;4010;42.698;23.124;2022-10-22T05:08:52;38152.72;;;-140.64;100.00
7930;BME280;4010;42.698;23.124;2022-10-22T05:11:22;38924.84;;;-140.64;100.00
7930;BME280;4010;42.698;23.124;2022-10-22T05:13:49;39439.72;;;-140.64;100.00
7930;BME280;4010;42.698;23.124;2022-10-22T05:16:16;39697.16;;;-140.64;100.00
7930;BME280;4010;42.698;23.124;2022-10-22T05:18:43;40212.13;;;-140.64;100.00
7930;BME280;4010;42.698;23.124;2022-10-22T05:21:12;40727.16;;;-140.64;100.00
7930;BME280;4010;42.698;23.124;2022-10-22T05:23:41;40212.13;;;-140.64;100.00
7930;BME280;4010;42.698;23.124;2022-10-22T05:26:10;40212.13;;;-140.64;100.00
7930;BME280;4010;42.698;23.124;2022-10-22T05:28:37;39954.63;;;-140.64;100.00
7930;BME280;4010;42.698;23.124;2022-10-22T05:31:05;39697.16;;;-140.64;100.00
7930;BME280;4010;42.698;23.124;2022-10-22T05:33:32;39182.28;;;-140.64;100.00
7930;BME280;4010;42.698;23.124;2022-10-22T05:36:00;39182.28;;;-140.64;100.00
7930;BME280;4010;42.698;23.124;2022-10-22T05:38:28;37895.41;;;-140.64;100.00
7930;BME280;4010;42.698;23.124;2022-10-22T05:41:00;37638.09;;;-140.64;100.00
7930;BME280;4010;42.698;23.124;2022-10-22T05:43:27;35837.44;;;-140.64;100.00
7930;BME280;4010;42.698;23.124;2022-10-22T05:45:54;34808.91;;;-140.64;100.00
7930;BME280;4010;42.698;23.124;2022-10-22T05:48:21;34037.75;;;-140.64;100.00
7930;BME280;4010;42.698;23.124;2022-10-22T05:50:48;35066.00;;;-140.64;100.00
7930;BME280;4010;42.698;23.124;2022-10-22T05:53:16;35580.28;;;-140.64;100.00
7930;BME280;4010;42.698;23.124;2022-10-22T05:55:43;34294.78;;;-140.64;100.00
7930;BME280;4010;42.698;23.124;2022-10-22T05:58:11;34037.75;;;-140.64;100.00
7930;BME280;4010;42.698;23.124;2022-10-22T06:00:38;33266.75;;;-140.64;100.00
7930;BME280;4010;42.698;23.124;2022-10-22T06:03:05;31982.13;;;-140.64;100.00
7930;BME280;4010;42.698;23.124;2022-10-22T06:05:34;30698.03;;;-140.64;100.00
7930;BME280;4010;42.698;23.124;2022-10-22T06:08:01;30184.53;;;-140.64;100.00
7930;BME280;4010;42.698;23.124;2022-10-22T06:10:29;29671.09;;;-140.64;100.00
7930;BME280;4010;42.698;23.124;2022-10-22T06:12:56;29414.41;;;-140.64;100.00
7930;BME280;4010;42.698;23.124;2022-10-22T06:15:24;29927.81;;;-140.64;100.00
7930;BME280;4010;42.698;23.124;2022-10-22T06:17:51;32752.84;;;-140.64;100.00
7930;BME280;4010;42.698;23.124;2022-10-22T06:20:17;35066.00;;;-140.64;100.00
7930;BME280;4010;42.698;23.124;2022-10-22T06:22:44;39182.28;;;-140.64;100.00
7930;BME280;4010;42.698;23.124;2022-10-22T06:25:12;38924.84;;;-140.64;100.00
7930;BME280;4010;42.698;23.124;2022-10-22T06:27:39;39697.16;;;-140.64;100.00
7930;BME280;4010;42.698;23.124;2022-10-22T06:30:07;38667.47;;;-140.64;100.00
7930;BME280;4010;42.698;23.124;2022-10-22T06:32:35;44592.53;;;-140.64;100.00
7930;BME280;4010;42.698;23.124;2022-10-22T06:35:02;46655.88;;;-140.64;100.00
7930;BME280;4010;42.698;23.124;2022-10-22T06:37:28;52853.47;;;-140.64;100.00
7930;BME280;4010;42.698;23.124;2022-10-22T06:39:55;76976.53;;;-140.64;100.00
7930;BME280;4010;42.698;23.124;2022-10-22T06:42:22;118026.06;;;-140.64;100.00
7930;BME280;4010;42.698;23.124;2022-10-22T06:44:48;118349.16;;;-140.64;100.00
7930;BME280;4010;42.698;23.124;2022-10-22T06:47:15;118349.16;;;-140.64;100.00
7930;BME280;4010;42.698;23.124;2022-10-22T06:49:43;118349.16;;;-140.64;100.00
7930;BME280;4010;42.698;23.124;2022-10-22T06:52:11;118349.16;;;-140.64;100.00
7930;BME280;4010;42.698;23.124;2022-10-22T06:54:38;118349.16;;;-140.64;100.00
7930;BME280;4010;42.698;23.124;2022-10-22T06:57:04;118349.16;;;-140.64;100.00
7930;BME280;4010;42.698;23.124;2022-10-22T06:59:31;118349.16;;;-140.64;100.00
7930;BME280;4010;42.698;23.124;2022-10-22T07:01:58;118349.16;;;-140.64;100.00
7930;BME280;4010;42.698;23.124;2022-10-22T07:04:24;118349.16;;;-140.64;100.00
7930;BME280;4010;42.698;23.124;2022-10-22T07:06:54;118349.16;;;-140.64;100.00
7930;BME280;4010;42.698;23.124;2022-10-22T07:09:21;118349.16;;;-140.64;100.00
7930;BME280;4010;42.698;23.124;2022-10-22T07:11:48;118349.16;;;-140.64;100.00
7930;BME280;4010;42.698;23.124;2022-10-22T07:14:15;118349.16;;;-140.64;100.00
7930;BME280;4010;42.698;23.124;2022-10-22T07:16:41;118349.16;;;-140.64;100.00
7930;BME280;4010;42.698;23.124;2022-10-22T07:22:32;118349.16;;;-140.64;100.00
7930;BME280;4010;42.698;23.124;2022-10-22T07:24:59;118349.16;;;-140.64;100.00
7930;BME280;4010;42.698;23.124;2022-10-22T07:27:26;118349.16;;;-140.64;100.00
7930;BME280;4010;42.698;23.124;2022-10-22T07:29:53;118349.16;;;-140.64;100.00
7930;BME280;4010;42.698;23.124;2022-10-22T07:32:19;118349.16;;;-140.64;100.00
7930;BME280;4010;42.698;23.124;2022-10-22T07:34:46;118349.16;;;-140.64;100.00
7930;BME280;4010;42.698;23.124;2022-10-22T07:37:13;118349.16;;;-140.64;100.00
7930;BME280;4010;42.698;23.124;2022-10-22T07:39:41;118349.16;;;-140.64;100.00
7930;BME280;4010;42.698;23.124;2022-10-22T07:42:10;118349.16;;;-140.64;100.00
7930;BME280;4010;42.698;23.124;2022-10-22T07:44:37;118349.16;;;-140.64;100.00
7930;BME280;4010;42.698;23.124;2022-10-22T07:47:04;118349.16;;;-140.64;100.00
7930;BME280;4010;42.698;23.124;2022-10-22T07:49:31;118349.16;;;-140.64;100.00
7930;BME280;4010;42.698;23.124;2022-10-22T07:51:58;118349.16;;;-140.64;100.00
7930;BME280;4010;42.698;23.124;2022-10-22T07:54:24;118349.16;;;-140.64;100.00
7930;BME280;4010;42.698;23.124;2022-10-22T07:56:52;118349.16;;;-140.64;100.00
7930;BME280;4010;42.698;23.124;2022-10-22T07:59:19;118349.16;;;-140.64;100.00
7930;BME280;4010;42.698;23.124;2022-10-22T08:01:46;118349.16;;;-140.64;100.00
7930;BME280;4010;42.698;23.124;2022-10-22T08:04:13;118349.16;;;-140.64;100.00
7930;BME280;4010;42.698;23.124;2022-10-22T08:06:39;118349.16;;;-140.64;100.00
7930;BME280;4010;42.698;23.124;2022-10-22T08:09:06;118349.16;;;-140.64;100.00
7930;BME280;4010;42.698;23.124;2022-10-22T08:11:33;118349.16;;;-140.64;100.00
7930;BME280;4010;42.698;23.124;2022-10-22T08:14:01;118349.16;;;-140.64;100.00
7930;BME280;4010;42.698;23.124;2022-10-22T08:16:27;118349.16;;;-140.64;100.00
7930;BME280;4010;42.698;23.124;2022-10-22T08:18:54;118349.16;;;-140.64;100.00
7930;BME280;4010;42.698;23.124;2022-10-22T08:21:21;118349.16;;;-140.64;100.00
7930;BME280;4010;42.698;23.124;2022-10-22T08:23:48;118349.16;;;-140.64;100.00
7930;BME280;4010;42.698;23.124;2022-10-22T08:26:14;118349.16;;;-140.64;100.00
7930;BME280;4010;42.698;23.124;2022-10-22T08:28:41;118349.16;;;-140.64;100.00
7930;BME280;4010;42.698;23.124;2022-10-22T08:31:09;118349.16;;;-140.64;100.00
7930;BME280;4010;42.698;23.124;2022-10-22T08:33:36;118349.16;;;-140.64;100.00
7930;BME280;4010;42.698;23.124;2022-10-22T08:36:04;118349.16;;;-140.64;100.00
7930;BME280;4010;42.698;23.124;2022-10-22T08:38:31;118349.16;;;-140.64;100.00
7930;BME280;4010;42.698;23.124;2022-10-22T08:41:05;118349.16;;;-140.64;100.00
7930;BME280;4010;42.698;23.124;2022-10-22T08:43:54;118349.16;;;-140.64;100.00
7930;BME280;4010;42.698;23.124;2022-10-22T08:46:38;118349.16;;;-140.64;100.00
7930;BME280;4010;42.698;23.124;2022-10-22T08:49:15;118349.16;;;-140.64;100.00
7930;BME280;4010;42.698;23.124;2022-10-22T08:51:44;118349.16;;;-140.64;100.00
7930;BME280;4010;42.698;23.124;2022-10-22T08:54:21;118349.16;;;-140.64;100.00
7930;BME280;4010;42.698;23.124;2022-10-22T08:56:58;118349.16;;;-140.64;100.00
7930;BME280;4010;42.698;23.124;2022-10-22T08:59:33;118349.16;;;-140.64;100.00
7930;BME280;4010;42.698;23.124;2022-10-22T09:02:14;118349.16;;;-140.64;100.00
7930;BME280;4010;42.698;23.124;2022-10-22T09:04:49;118349.16;;;-140.64;100.00
7930;BME280;4010;42.698;23.124;2022-10-22T09:07:19;118349.16;;;-140.64;99.81
7930;BME280;4010;42.698;23.124;2022-10-22T09:09:49;118349.16;;;-140.64;98.30
7930;BME280;4010;42.698;23.124;2022-10-22T09:12:17;118349.16;;;-140.64;100.00
7930;BME280;4010;42.698;23.124;2022-10-22T09:14:48;118349.16;;;-140.64;98.02
7930;BME280;4010;42.698;23.124;2022-10-22T09:17:20;118349.16;;;-140.64;97.30
7930;BME280;4010;42.698;23.124;2022-10-22T09:19:59;118349.16;;;-140.64;97.74
7930;BME280;4010;42.698;23.124;2022-10-22T09:22:33;118349.16;;;-140.64;96.85
7930;BME280;4010;42.698;23.124;2022-10-22T09:25:14;118349.16;;;-140.64;94.75
7930;BME280;4010;42.698;23.124;2022-10-22T09:27:44;118349.16;;;-140.64;94.59
7930;BME280;4010;42.698;23.124;2022-10-22T09:30:14;118349.16;;;-140.64;93.62
7930;BME280;4010;42.698;23.124;2022-10-22T09:32:43;118349.16;;;-140.64;94.72
7930;BME280;4010;42.698;23.124;2022-10-22T09:35:11;118349.16;;;-140.64;93.24
7930;BME280;4010;42.698;23.124;2022-10-22T09:37:47;118349.16;;;-140.64;93.10
7930;BME280;4010;42.698;23.124;2022-10-22T09:40:15;118349.16;;;-140.64;94.03
7930;BME280;4010;42.698;23.124;2022-10-22T09:42:43;118349.16;;;-140.64;91.84
7930;BME280;4010;42.698;23.124;2022-10-22T09:45:16;118349.16;;;-140.64;92.83
7930;BME280;4010;42.698;23.124;2022-10-22T09:47:45;118349.16;;;-140.64;93.52
7930;BME280;4010;42.698;23.124;2022-10-22T09:50:21;118349.16;;;-140.64;92.97
7930;BME280;4010;42.698;23.124;2022-10-22T09:52:57;118349.16;;;-140.64;89.66
7930;BME280;4010;42.698;23.124;2022-10-22T09:55:26;118349.16;;;-140.64;88.29
7930;BME280;4010;42.698;23.124;2022-10-22T09:57:54;118349.16;;;-140.64;91.05
7930;BME280;4010;42.698;23.124;2022-10-22T10:00:21;118349.16;;;-140.64;89.98
7930;BME280;4010;42.698;23.124;2022-10-22T10:02:53;118349.16;;;-140.64;88.81
7930;BME280;4010;42.698;23.124;2022-10-22T10:05:28;118349.16;;;-140.64;89.84
7930;BME280;4010;42.698;23.124;2022-10-22T10:07:55;118349.16;;;-140.64;87.54
7930;BME280;4010;42.698;23.124;2022-10-22T10:10:32;118349.16;;;-140.64;88.35
7930;BME280;4010;42.698;23.124;2022-10-22T10:13:10;118349.16;;;-140.64;86.35
7930;BME280;4010;42.698;23.124;2022-10-22T10:15:51;118349.16;;;-140.64;85.54
7930;BME280;4010;42.698;23.124;2022-10-22T10:18:29;118349.16;;;-140.64;84.52
7930;BME280;4010;42.698;23.124;2022-10-22T10:21:07;118349.16;;;-140.64;82.62
7930;BME280;4010;42.698;23.124;2022-10-22T10:23:40;118349.16;;;-140.64;83.81
7930;BME280;4010;42.698;23.124;2022-10-22T10:26:14;118349.16;;;-140.64;83.57
7930;BME280;4010;42.698;23.124;2022-10-22T10:28:54;118349.16;;;-140.64;81.01
7930;BME280;4010;42.698;23.124;2022-10-22T10:31:32;118349.16;;;-140.64;79.46
7930;BME280;4010;42.698;23.124;2022-10-22T10:34:11;118349.16;;;-140.64;80.35
7930;BME280;4010;42.698;23.124;2022-10-22T10:36:45;118349.16;;;-140.64;78.62
7930;BME280;4010;42.698;23.124;2022-10-22T10:39:19;118349.16;;;-140.64;78.38
7930;BME280;4010;42.698;23.124;2022-10-22T10:41:53;118349.16;;;-140.64;79.64
7930;BME280;4010;42.698;23.124;2022-10-22T10:47:23;118349.16;;;-140.64;77.60
7930;BME280;4010;42.698;23.124;2022-10-22T10:50:04;118349.16;;;-140.64;74.56
7930;BME280;4010;42.698;23.124;2022-10-22T10:52:39;118349.16;;;-140.64;73.48
7930;BME280;4010;42.698;23.124;2022-10-22T10:55:16;118349.16;;;-140.64;72.17
7930;BME280;4010;42.698;23.124;2022-10-22T10:57:54;118349.16;;;-140.64;73.47
7930;BME280;4010;42.698;23.124;2022-10-22T11:00:26;118349.16;;;-140.64;69.72
7930;BME280;4010;42.698;23.124;2022-10-22T11:03:21;118349.16;;;-140.64;72.06
7930;BME280;4010;42.698;23.124;2022-10-22T11:05:59;118349.16;;;-140.64;68.70
7930;BME280;4010;42.698;23.124;2022-10-22T11:08:29;118349.16;;;-140.64;65.97
7930;BME280;4010;42.698;23.124;2022-10-22T11:11:00;118349.16;;;-140.64;64.51
7930;BME280;4010;42.698;23.124;2022-10-22T11:13:31;118349.16;;;-140.64;66.84
7930;BME280;4010;42.698;23.124;2022-10-22T11:16:03;118349.16;;;-140.64;65.14
7930;BME280;4010;42.698;23.124;2022-10-22T11:18:35;118349.16;;;-140.64;62.59
7930;BME280;4010;42.698;23.124;2022-10-22T11:21:16;118349.16;;;-140.64;59.88
7930;BME280;4010;42.698;23.124;2022-10-22T11:23:47;118349.16;;;-140.64;60.45
7930;BME280;4010;42.698;23.124;2022-10-22T11:26:26;118349.16;;;-140.64;62.00
7930;BME280;4010;42.698;23.124;2022-10-22T11:28:56;118349.16;;;-140.64;58.16
7930;BME280;4010;42.698;23.124;2022-10-22T11:31:25;118349.16;;;-140.64;60.83
7930;BME280;4010;42.698;23.124;2022-10-22T11:33:59;118349.16;;;-140.64;56.12
7930;BME280;4010;42.698;23.124;2022-10-22T11:36:32;118349.16;;;-140.64;52.30
7930;BME280;4010;42.698;23.124;2022-10-22T11:39:01;118349.16;;;-140.64;51.38
7930;BME280;4010;42.698;23.124;2022-10-22T11:41:29;118349.16;;;-140.64;55.15
7930;BME280;4010;42.698;23.124;2022-10-22T11:44:07;118349.16;;;-140.64;57.36
7930;BME280;4010;42.698;23.124;2022-10-22T11:46:42;118349.16;;;-140.64;57.39
7930;BME280;4010;42.698;23.124;2022-10-22T11:49:21;118349.16;;;-140.64;56.81
7930;BME280;4010;42.698;23.124;2022-10-22T11:51:51;118349.16;;;-140.64;57.20
7930;BME280;4010;42.698;23.124;2022-10-22T11:54:37;118349.16;;;-140.64;57.10
7930;BME280;4010;42.698;23.124;2022-10-22T11:57:21;118349.16;;;-140.64;59.23
7930;BME280;4010;42.698;23.124;2022-10-22T11:59:53;118349.16;;;-140.64;58.23
7930;BME280;4010;42.698;23.124;2022-10-22T12:02:33;118349.16;;;-140.64;59.49
7930;BME280;4010;42.698;23.124;2022-10-22T12:05:34;118349.16;;;-140.64;58.09
7930;BME280;4010;42.698;23.124;2022-10-22T12:08:25;118349.16;;;-140.64;58.46
7930;BME280;4010;42.698;23.124;2022-10-22T12:10:59;118349.16;;;-140.64;59.05
7930;BME280;4010;42.698;23.124;2022-10-22T12:13:30;118349.16;;;-140.64;59.34
7930;BME280;4010;42.698;23.124;2022-10-22T12:16:00;118349.16;;;-140.64;59.20
7930;BME280;4010;42.698;23.124;2022-10-22T12:18:33;118349.16;;;-140.64;58.26
7930;BME280;4010;42.698;23.124;2022-10-22T12:21:01;118349.16;;;-140.64;58.63
7930;BME280;4010;42.698;23.124;2022-10-22T12:23:31;118349.16;;;-140.64;59.43
7930;BME280;4010;42.698;23.124;2022-10-22T12:25:59;118349.16;;;-140.64;57.68
7930;BME280;4010;42.698;23.124;2022-10-22T12:28:26;118349.16;;;-140.64;58.97
7930;BME280;4010;42.698;23.124;2022-10-22T12:30:53;118349.16;;;-140.64;58.19
7930;BME280;4010;42.698;23.124;2022-10-22T12:33:22;118349.16;;;-140.64;58.05
7930;BME280;4010;42.698;23.124;2022-10-22T12:35:53;118349.16;;;-140.64;59.50
7930;BME280;4010;42.698;23.124;2022-10-22T12:38:23;118349.16;;;-140.64;55.15
7930;BME280;4010;42.698;23.124;2022-10-22T12:40:54;118349.16;;;-140.64;52.79
7930;BME280;4010;42.698;23.124;2022-10-22T12:43:24;118349.16;;;-140.64;50.18
7930;BME280;4010;42.698;23.124;2022-10-22T12:45:51;118349.16;;;-140.64;48.32
7930;BME280;4010;42.698;23.124;2022-10-22T12:48:21;118349.16;;;-140.64;46.38
7930;BME280;4010;42.698;23.124;2022-10-22T12:51:08;118349.16;;;-140.64;46.54
7930;BME280;4010;42.698;23.124;2022-10-22T12:53:42;118349.16;;;-140.64;48.02
7930;BME280;4010;42.698;23.124;2022-10-22T12:56:13;118349.16;;;-140.64;46.59
7930;BME280;4010;42.698;23.124;2022-10-22T12:58:43;118349.16;;;-140.64;45.46
7930;BME280;4010;42.698;23.124;2022-10-22T13:01:11;118349.16;;;-140.64;44.75